createdAt,value
2023-03-10T00:00:39.777Z,99601.31
2023-03-10T00:03:06.221Z,99596.84
2023-03-10T00:05:33.098Z,99590.13
2023-03-10T00:07:59.673Z,99594.25
2023-03-10T00:10:26.278Z,99595.84
2023-03-10T00:12:52.776Z,99596.06
2023-03-10T00:15:19.270Z,99593.06
2023-03-10T00:17:45.743Z,99588.16
2023-03-10T00:20:12.978Z,99579.00
2023-03-10T00:22:41.674Z,99580.00
2023-03-10T00:25:09.680Z,99578.56
2023-03-10T00:27:36.332Z,99569.63
2023-03-10T00:30:03.436Z,99559.50
2023-03-10T00:32:30.094Z,99559.34
2023-03-10T00:34:56.705Z,99552.84
2023-03-10T00:37:23.169Z,99548.13
2023-03-10T00:39:52.865Z,99546.06
2023-03-10T00:42:20.154Z,99557.59
2023-03-10T00:44:46.877Z,99552.19
2023-03-10T00:47:13.385Z,99541.41
2023-03-10T00:49:39.822Z,99543.00
2023-03-10T00:52:06.478Z,99541.13
2023-03-10T00:54:32.864Z,99536.88
2023-03-10T00:56:59.339Z,99535.13
2023-03-10T00:59:25.779Z,99532.50
2023-03-10T01:01:52.237Z,99537.38
2023-03-10T01:04:19.913Z,99538.66
2023-03-10T01:06:47.654Z,99530.63
2023-03-10T01:09:14.415Z,99530.19
2023-03-10T01:11:41.006Z,99527.84
2023-03-10T01:14:08.943Z,99520.59
2023-03-10T01:16:35.384Z,99508.84
2023-03-10T01:19:02.103Z,99503.34
2023-03-10T01:21:31.222Z,99507.22
2023-03-10T01:23:57.677Z,99512.88
2023-03-10T01:26:24.099Z,99508.66
2023-03-10T01:28:50.567Z,99509.84
2023-03-10T01:31:18.193Z,99510.19
2023-03-10T01:33:45.986Z,99514.84
2023-03-10T01:36:23.882Z,99504.16
2023-03-10T01:38:50.412Z,99503.88
2023-03-10T01:41:17.769Z,99505.69
2023-03-10T01:43:49.338Z,99498.00
2023-03-10T01:46:33.967Z,99496.72
2023-03-10T01:49:04.780Z,99490.06
2023-03-10T01:51:35.851Z,99492.69
2023-03-10T01:54:05.823Z,99503.66
2023-03-10T01:56:32.275Z,99496.91
2023-03-10T01:58:58.798Z,99494.03
2023-03-10T02:01:25.624Z,99501.69
2023-03-10T02:04:01.873Z,99492.09
2023-03-10T02:06:29.125Z,99481.47
2023-03-10T02:08:59.499Z,99479.88
2023-03-10T02:11:26.009Z,99472.31
2023-03-10T02:13:54.042Z,99478.75
2023-03-10T02:16:22.696Z,99469.81
2023-03-10T02:18:49.583Z,99469.72
2023-03-10T02:21:21.530Z,99460.94
2023-03-10T02:24:29.466Z,99453.59
2023-03-10T02:27:04.620Z,99458.59
2023-03-10T02:29:42.624Z,99451.03
2023-03-10T02:32:14.393Z,99447.19
2023-03-10T02:34:41.172Z,99442.66
2023-03-10T02:37:07.581Z,99440.63
2023-03-10T02:39:33.975Z,99425.41
2023-03-10T02:42:00.430Z,99423.88
2023-03-10T02:44:27.369Z,99421.97
2023-03-10T02:46:53.821Z,99428.09
2023-03-10T02:49:23.213Z,99422.69
2023-03-10T02:51:49.678Z,99419.41
2023-03-10T02:54:16.242Z,99406.91
2023-03-10T02:56:43.052Z,99417.56
2023-03-10T02:59:10.048Z,99418.44
2023-03-10T03:01:36.484Z,99413.03
2023-03-10T03:04:03.539Z,99402.22
2023-03-10T03:06:30.453Z,99415.41
2023-03-10T03:08:57.192Z,99423.06
2023-03-10T03:11:23.958Z,99421.84
2023-03-10T03:13:50.963Z,99414.03
2023-03-10T03:16:18.175Z,99406.84
2023-03-10T03:18:44.702Z,99408.22
2023-03-10T03:21:15.813Z,99408.22
2023-03-10T03:23:42.873Z,99412.22
2023-03-10T03:26:23.937Z,99411.69
2023-03-10T03:28:52.101Z,99405.31
2023-03-10T03:31:21.852Z,99397.97
2023-03-10T03:33:48.673Z,99393.88
2023-03-10T03:36:15.512Z,99379.28
2023-03-10T03:38:42.082Z,99376.31
2023-03-10T03:41:08.735Z,99363.03
2023-03-10T03:43:35.251Z,99356.91
2023-03-10T03:46:01.698Z,99350.31
2023-03-10T03:48:28.255Z,99359.09
2023-03-10T03:50:54.648Z,99347.94
2023-03-10T03:53:21.107Z,99341.94
2023-03-10T03:55:47.537Z,99339.63
2023-03-10T03:58:13.975Z,99338.97
2023-03-10T04:00:40.773Z,99338.88
2023-03-10T04:03:07.426Z,99342.47
2023-03-10T04:05:33.995Z,99344.47
2023-03-10T04:08:00.468Z,99337.34
2023-03-10T04:10:29.761Z,99329.97
2023-03-10T04:12:56.333Z,99323.28
2023-03-10T04:15:22.833Z,99319.97
2023-03-10T04:17:49.252Z,99321.53
2023-03-10T04:20:16.120Z,99316.81
2023-03-10T04:22:42.555Z,99312.81
2023-03-10T04:25:09.106Z,99299.34
2023-03-10T04:27:36.292Z,99286.72
2023-03-10T04:30:03.669Z,99281.25
2023-03-10T04:32:30.167Z,99274.00
2023-03-10T04:34:56.621Z,99268.88
2023-03-10T04:37:23.092Z,99270.00
2023-03-10T04:39:49.529Z,99271.78
2023-03-10T04:42:15.968Z,99270.09
2023-03-10T04:44:42.511Z,99277.13
2023-03-10T04:47:08.968Z,99270.44
2023-03-10T04:49:37.109Z,99273.81
2023-03-10T04:52:03.521Z,99274.47
2023-03-10T04:54:29.962Z,99285.84
2023-03-10T04:56:57.341Z,99283.47
2023-03-10T04:59:24.442Z,99277.13
2023-03-10T05:01:52.322Z,99282.06
2023-03-10T05:04:18.862Z,99277.25
2023-03-10T05:06:45.335Z,99263.09
2023-03-10T05:09:11.800Z,99254.19
2023-03-10T05:11:38.234Z,99247.22
2023-03-10T05:14:04.665Z,99252.09
2023-03-10T05:16:31.108Z,99253.78
2023-03-10T05:18:57.550Z,99249.19
2023-03-10T05:21:24.155Z,99251.00
2023-03-10T05:23:50.687Z,99256.78
2023-03-10T05:26:17.521Z,99249.88
2023-03-10T05:28:44.362Z,99252.22
2023-03-10T05:31:13.213Z,99249.66
2023-03-10T05:33:40.427Z,99260.09
2023-03-10T05:36:12.114Z,99259.19
2023-03-10T05:38:38.823Z,99254.38
2023-03-10T05:41:09.831Z,99249.00
2023-03-10T05:43:37.339Z,99246.22
2023-03-10T05:46:04.306Z,99245.69
2023-03-10T05:48:30.907Z,99247.41
2023-03-10T05:51:01.913Z,99247.16
2023-03-10T05:53:30.014Z,99250.88
2023-03-10T05:55:57.102Z,99241.81
2023-03-10T05:58:25.196Z,99240.03
2023-03-10T06:00:52.568Z,99250.63
2023-03-10T06:03:19.878Z,99240.78
2023-03-10T06:05:46.442Z,99247.72
2023-03-10T06:08:12.882Z,99244.91
2023-03-10T06:10:39.437Z,99251.66
2023-03-10T06:13:06.020Z,99240.53
2023-03-10T06:15:32.472Z,99244.53
2023-03-10T06:17:58.930Z,99236.34
2023-03-10T06:20:26.599Z,99224.59
2023-03-10T06:22:53.377Z,99216.84
2023-03-10T06:25:20.885Z,99202.94
2023-03-10T06:27:47.473Z,99205.50
2023-03-10T06:30:14.944Z,99195.78
2023-03-10T06:32:41.715Z,99190.97
2023-03-10T06:35:08.554Z,99191.78
2023-03-10T06:37:35.078Z,99189.75
2023-03-10T06:40:01.634Z,99187.19
2023-03-10T06:42:28.088Z,99171.75
2023-03-10T06:44:55.213Z,99170.53
2023-03-10T06:47:21.786Z,99161.63
2023-03-10T06:49:48.593Z,99155.84
2023-03-10T06:52:15.104Z,99155.06
2023-03-10T06:54:42.857Z,99152.97
2023-03-10T06:57:09.349Z,99157.41
2023-03-10T06:59:35.782Z,99153.59
2023-03-10T07:02:02.270Z,99152.00
2023-03-10T07:04:28.721Z,99145.00
2023-03-10T07:06:55.207Z,99152.72
2023-03-10T07:09:21.673Z,99157.34
2023-03-10T07:11:48.112Z,99162.31
2023-03-10T07:14:14.565Z,99159.38
2023-03-10T07:16:41.196Z,99152.91
2023-03-10T07:19:07.772Z,99151.22
2023-03-10T07:21:34.271Z,99143.69
2023-03-10T07:24:00.734Z,99144.41
2023-03-10T07:26:27.365Z,99142.03
2023-03-10T07:28:54.342Z,99141.94
2023-03-10T07:31:21.257Z,99142.72
2023-03-10T07:33:49.274Z,99142.34
2023-03-10T07:36:17.838Z,99134.72
2023-03-10T07:38:45.437Z,99129.38
2023-03-10T07:41:16.578Z,99116.16
2023-03-10T07:43:43.203Z,99120.31
2023-03-10T07:46:12.440Z,99119.31
2023-03-10T07:48:40.657Z,99116.22
2023-03-10T07:51:07.534Z,99110.41
2023-03-10T07:53:34.286Z,99119.41
2023-03-10T07:56:04.753Z,99119.97
2023-03-10T07:58:31.581Z,99125.13
2023-03-10T08:00:59.070Z,99126.69
2023-03-10T08:03:27.143Z,99126.00
2023-03-10T08:05:53.875Z,99123.47
2023-03-10T08:08:20.682Z,99118.00
2023-03-10T08:10:47.431Z,99120.03
2023-03-10T08:13:14.387Z,99126.81
2023-03-10T08:15:41.162Z,99123.69
2023-03-10T08:18:09.310Z,99120.78
2023-03-10T08:20:36.787Z,99119.75
2023-03-10T08:23:03.923Z,99122.66
2023-03-10T08:25:31.105Z,99126.94
2023-03-10T08:27:57.816Z,99127.66
2023-03-10T08:30:24.536Z,99134.00
2023-03-10T08:32:51.302Z,99137.09
2023-03-10T08:35:18.095Z,99128.38
2023-03-10T08:37:44.646Z,99131.44
2023-03-10T08:40:14.310Z,99127.72
2023-03-10T08:42:40.787Z,99138.50
2023-03-10T08:45:08.847Z,99127.88
2023-03-10T08:47:35.770Z,99124.25
2023-03-10T08:50:02.377Z,99119.47
2023-03-10T08:52:28.838Z,99112.47
2023-03-10T08:54:55.256Z,99109.31
2023-03-10T08:57:22.067Z,99107.16
2023-03-10T08:59:48.643Z,99106.25
2023-03-10T09:02:15.306Z,99109.16
2023-03-10T09:04:42.574Z,99116.53
2023-03-10T09:07:09.652Z,99115.19
2023-03-10T09:09:36.268Z,99109.75
2023-03-10T09:12:03.480Z,99113.84
2023-03-10T09:14:29.991Z,99118.16
2023-03-10T09:16:56.450Z,99123.34
2023-03-10T09:19:22.968Z,99125.28
2023-03-10T09:21:49.511Z,99113.84
2023-03-10T09:24:15.961Z,99115.44
2023-03-10T09:26:44.711Z,99122.69
2023-03-10T09:29:12.111Z,99125.28
2023-03-10T09:31:39.588Z,99117.78
2023-03-10T09:34:08.320Z,99108.53
2023-03-10T09:36:35.615Z,99112.56
2023-03-10T09:39:02.460Z,99113.66
2023-03-10T09:41:38.088Z,99111.69
2023-03-10T09:44:22.426Z,99108.59
2023-03-10T09:47:02.505Z,99108.44
2023-03-10T09:49:39.142Z,99107.53
2023-03-10T09:52:35.017Z,99111.72
2023-03-10T09:55:23.499Z,99105.78
2023-03-10T09:57:53.223Z,99112.38
2023-03-10T10:00:29.220Z,99103.13
2023-03-10T10:03:51.471Z,99111.09
2023-03-10T10:06:28.891Z,99113.56
2023-03-10T10:09:05.048Z,99113.19
2023-03-10T10:11:33.962Z,99108.34
2023-03-10T10:14:26.157Z,99099.47
2023-03-10T10:17:03.416Z,99100.38
2023-03-10T10:19:30.013Z,99100.44
2023-03-10T10:22:10.377Z,99096.03
2023-03-10T10:24:36.826Z,99102.25
2023-03-10T10:27:03.351Z,99097.41
2023-03-10T10:29:37.224Z,99100.81
2023-03-10T10:32:10.357Z,99087.63
2023-03-10T10:34:42.251Z,99092.75
2023-03-10T10:37:37.238Z,99092.56
2023-03-10T10:40:24.792Z,99087.72
2023-03-10T10:42:53.809Z,99092.09
2023-03-10T10:45:32.764Z,99096.16
2023-03-10T10:47:59.323Z,99097.09
2023-03-10T10:50:28.812Z,99086.16
2023-03-10T10:53:24.258Z,99081.66
2023-03-10T10:56:06.356Z,99066.91
2023-03-10T10:58:38.317Z,99076.56
2023-03-10T11:01:07.706Z,99073.88
2023-03-10T11:03:39.467Z,99070.03
2023-03-10T11:06:18.169Z,99082.59
2023-03-10T11:08:50.831Z,99076.59
2023-03-10T11:11:29.542Z,99070.84
2023-03-10T11:14:20.863Z,99077.28
2023-03-10T11:16:52.966Z,99067.28
2023-03-10T11:19:32.016Z,99068.59
2023-03-10T11:22:23.682Z,99056.06
2023-03-10T11:25:21.769Z,99056.91
2023-03-10T11:27:51.948Z,99059.47
2023-03-10T11:30:29.671Z,99056.72
2023-03-10T11:33:28.558Z,99058.16
2023-03-10T11:36:14.218Z,99066.63
2023-03-10T11:38:46.108Z,99058.19
2023-03-10T11:41:24.899Z,99057.94
2023-03-10T11:44:07.454Z,99057.66
2023-03-10T11:46:40.069Z,99054.56
2023-03-10T11:49:12.725Z,99037.91
2023-03-10T11:51:58.485Z,99038.00
2023-03-10T11:54:30.859Z,99034.00
2023-03-10T11:56:58.285Z,99040.69
2023-03-10T11:59:27.954Z,99033.09
2023-03-10T12:02:10.574Z,99036.81
2023-03-10T12:04:53.985Z,99026.34
2023-03-10T12:07:34.080Z,99035.66
2023-03-10T12:10:14.921Z,99035.41
2023-03-10T12:12:44.596Z,99028.97
2023-03-10T12:15:36.942Z,99023.31
2023-03-10T12:18:06.582Z,99011.94
2023-03-10T12:20:34.769Z,99012.47
2023-03-10T12:23:26.973Z,99016.50
2023-03-10T12:25:53.726Z,99015.00
2023-03-10T12:28:26.280Z,99014.25
2023-03-10T12:31:11.098Z,99010.22
2023-03-10T12:33:49.663Z,99018.47
2023-03-10T12:36:37.301Z,99019.25
2023-03-10T12:39:28.297Z,99013.53
2023-03-10T12:41:55.842Z,99015.75
2023-03-10T12:44:22.280Z,99012.25
2023-03-10T12:46:53.220Z,99013.59
2023-03-10T12:49:41.430Z,99004.91
2023-03-10T12:52:26.508Z,99002.41
2023-03-10T12:55:22.143Z,98996.56
2023-03-10T12:57:54.640Z,99005.63
2023-03-10T13:00:42.390Z,99001.63
2023-03-10T13:03:19.574Z,99006.84
2023-03-10T13:06:01.411Z,99004.13
2023-03-10T13:08:39.177Z,99012.81
2023-03-10T13:11:16.096Z,99001.75
2023-03-10T13:13:43.322Z,99010.50
2023-03-10T13:16:21.160Z,99005.50
2023-03-10T13:18:49.799Z,99004.63
2023-03-10T13:21:29.452Z,99008.09
2023-03-10T13:23:57.217Z,99000.31
2023-03-10T13:26:25.261Z,99008.38
2023-03-10T13:28:54.698Z,99010.47
2023-03-10T13:31:33.955Z,99015.00
2023-03-10T13:34:17.791Z,99013.59
2023-03-10T13:36:44.341Z,99013.75
2023-03-10T13:39:27.378Z,99004.84
2023-03-10T13:41:58.337Z,99004.72
2023-03-10T13:44:31.952Z,98992.09
2023-03-10T13:47:00.910Z,98993.56
2023-03-10T13:49:32.208Z,98994.44
2023-03-10T13:52:05.351Z,99001.38
2023-03-10T13:54:37.623Z,98994.59
2023-03-10T13:57:19.517Z,98995.78
2023-03-10T13:59:47.600Z,98990.47
2023-03-10T14:02:19.068Z,98997.81
2023-03-10T14:04:51.358Z,98998.88
2023-03-10T14:07:27.696Z,98991.22
2023-03-10T14:10:06.217Z,98986.97
2023-03-10T14:12:35.533Z,98985.06
2023-03-10T14:15:14.060Z,98986.53
2023-03-10T14:17:44.839Z,98992.19
2023-03-10T14:20:24.215Z,98995.63
2023-03-10T14:22:50.639Z,98997.06
2023-03-10T14:25:19.415Z,99008.22
2023-03-10T14:27:52.168Z,99010.13
2023-03-10T14:30:28.574Z,99005.94
2023-03-10T14:32:56.491Z,99007.59
2023-03-10T14:35:24.922Z,99008.72
2023-03-10T14:37:52.213Z,98998.09
2023-03-10T14:40:21.506Z,99011.53
2023-03-10T14:42:50.622Z,99000.44
2023-03-10T14:45:35.603Z,99006.59
2023-03-10T14:48:07.736Z,99010.97
2023-03-10T14:50:34.269Z,99005.50
2023-03-10T14:53:00.789Z,99008.31
2023-03-10T14:55:28.563Z,99008.16
2023-03-10T14:58:00.943Z,99003.97
2023-03-10T15:00:27.862Z,99001.22
2023-03-10T15:02:54.357Z,99004.28
2023-03-10T15:05:27.584Z,99003.66
2023-03-10T15:07:56.285Z,99000.97
2023-03-10T15:10:23.704Z,99003.66
2023-03-10T15:12:53.055Z,99002.72
2023-03-10T15:15:25.042Z,98996.72
2023-03-10T15:17:52.073Z,99023.34
2023-03-10T15:20:25.060Z,99017.13
2023-03-10T15:22:51.981Z,98996.34
2023-03-10T15:25:21.269Z,99012.78
2023-03-10T15:27:49.766Z,99028.41
2023-03-10T15:30:26.714Z,99013.69
2023-03-10T15:32:54.133Z,99010.34
2023-03-10T15:35:21.756Z,99007.66
2023-03-10T15:37:50.522Z,99004.97
2023-03-10T15:40:23.169Z,99015.47
2023-03-10T15:42:50.023Z,98998.94
2023-03-10T15:45:18.413Z,98989.38
2023-03-10T15:47:46.193Z,98992.69
2023-03-10T15:50:13.929Z,98998.47
2023-03-10T15:52:44.956Z,98995.66
2023-03-10T15:55:14.819Z,98999.84
2023-03-10T15:57:41.532Z,99003.00
2023-03-10T16:00:09.168Z,98999.34
2023-03-10T16:02:35.579Z,98993.97
2023-03-10T16:05:02.080Z,98994.63
2023-03-10T16:07:28.558Z,98998.78
2023-03-10T16:09:55.475Z,98993.41
2023-03-10T16:12:23.438Z,98987.09
2023-03-10T16:14:50.216Z,99004.19
2023-03-10T16:17:16.855Z,98999.50
2023-03-10T16:19:43.334Z,98990.47
2023-03-10T16:22:10.371Z,98991.81
2023-03-10T16:24:36.815Z,98994.81
2023-03-10T16:27:03.496Z,99002.94
2023-03-10T16:29:30.155Z,98989.69
2023-03-10T16:31:56.668Z,98979.84
2023-03-10T16:34:23.097Z,98974.56
2023-03-10T16:36:50.518Z,98975.97
2023-03-10T16:39:17.953Z,98967.94
2023-03-10T16:41:44.599Z,98967.06
2023-03-10T16:44:13.286Z,98957.50
2023-03-10T16:46:39.838Z,98954.91
2023-03-10T16:49:07.196Z,98960.91
2023-03-10T16:51:39.458Z,98965.97
2023-03-10T16:54:12.015Z,98973.44
2023-03-10T16:56:41.297Z,98978.97
2023-03-10T16:59:08.427Z,98969.22
2023-03-10T17:01:35.036Z,98976.00
2023-03-10T17:04:01.595Z,98968.72
2023-03-10T17:06:30.645Z,98983.88
2023-03-10T17:08:58.355Z,98991.03
2023-03-10T17:11:27.682Z,98988.69
2023-03-10T17:13:57.808Z,98980.63
2023-03-10T17:16:28.323Z,98975.88
2023-03-10T17:19:01.802Z,98977.09
2023-03-10T17:21:33.237Z,98968.59
2023-03-10T17:24:00.095Z,98973.44
2023-03-10T17:26:26.626Z,98978.53
2023-03-10T17:28:53.124Z,98979.50
2023-03-10T17:31:28.829Z,98972.81
2023-03-10T17:33:58.180Z,98971.06
2023-03-10T17:36:24.925Z,98968.41
2023-03-10T17:39:00.502Z,98987.13
2023-03-10T17:41:28.466Z,98993.63
2023-03-10T17:43:55.039Z,98998.94
2023-03-10T17:46:25.223Z,98991.84
2023-03-10T17:48:52.534Z,99003.75
2023-03-10T17:51:22.131Z,99001.78
2023-03-10T17:53:48.845Z,98992.97
2023-03-10T17:56:16.357Z,99008.28
2023-03-10T17:58:43.569Z,98999.53
2023-03-10T18:01:18.017Z,99012.53
2023-03-10T18:03:47.624Z,99018.63
2023-03-10T18:06:17.405Z,99024.66
2023-03-10T18:08:43.884Z,99038.75
2023-03-10T18:11:11.182Z,99028.63
2023-03-10T18:13:38.105Z,99034.66
2023-03-10T18:16:06.008Z,99031.06
2023-03-10T18:18:32.912Z,99038.00
2023-03-10T18:20:59.646Z,99039.09
2023-03-10T18:23:26.675Z,99038.41
2023-03-10T18:25:53.322Z,99031.41
2023-03-10T18:28:20.452Z,99043.41
2023-03-10T18:30:49.957Z,99045.25
2023-03-10T18:33:16.638Z,99044.88
2023-03-10T18:35:45.667Z,99039.88
2023-03-10T18:38:13.846Z,99045.25
2023-03-10T18:40:41.387Z,99055.28
2023-03-10T18:43:08.219Z,99052.78
2023-03-10T18:45:34.829Z,99052.63
2023-03-10T18:48:01.510Z,99063.88
2023-03-10T18:50:27.936Z,99075.59
2023-03-10T18:52:54.336Z,99070.09
2023-03-10T18:55:20.764Z,99078.13
2023-03-10T18:57:47.306Z,99073.94
2023-03-10T19:00:14.973Z,99071.72
2023-03-10T19:02:42.630Z,99087.44
2023-03-10T19:05:16.451Z,99096.31
2023-03-10T19:07:42.924Z,99090.28
2023-03-10T19:10:12.970Z,99090.03
2023-03-10T19:12:40.376Z,99101.34
2023-03-10T19:15:09.115Z,99091.84
2023-03-10T19:17:37.560Z,99082.63
2023-03-10T19:20:07.622Z,99070.09
2023-03-10T19:22:34.898Z,99073.22
2023-03-10T19:25:03.405Z,99075.41
2023-03-10T19:27:30.636Z,99082.47
2023-03-10T19:29:57.932Z,99100.47
2023-03-10T19:32:25.433Z,99096.59
2023-03-10T19:34:51.950Z,99104.06
2023-03-10T19:37:18.818Z,99097.53
2023-03-10T19:39:45.286Z,99119.34
2023-03-10T19:42:11.705Z,99120.88
2023-03-10T19:44:39.380Z,99128.03
2023-03-10T19:47:06.802Z,99138.06
2023-03-10T19:49:34.185Z,99131.75
2023-03-10T19:52:01.358Z,99142.09
2023-03-10T19:54:28.109Z,99142.69
2023-03-10T19:56:54.619Z,99145.28
2023-03-10T19:59:21.112Z,99147.63
2023-03-10T20:01:49.232Z,99157.19
2023-03-10T20:04:16.168Z,99147.13
2023-03-10T20:06:42.758Z,99153.88
2023-03-10T20:09:10.578Z,99153.88
2023-03-10T20:11:40.761Z,99162.59
2023-03-10T20:14:08.172Z,99173.56
2023-03-10T20:16:34.794Z,99168.88
2023-03-10T20:19:01.576Z,99168.56
2023-03-10T20:21:28.042Z,99184.03
2023-03-10T20:23:56.148Z,99165.19
2023-03-10T20:26:23.090Z,99171.47
2023-03-10T20:28:50.578Z,99163.38
2023-03-10T20:31:22.908Z,99171.84
2023-03-10T20:33:49.478Z,99158.47
2023-03-10T20:36:16.127Z,99155.97
2023-03-10T20:38:44.970Z,99143.31
2023-03-10T20:41:15.441Z,99155.06
2023-03-10T20:43:43.234Z,99158.56
2023-03-10T20:46:10.530Z,99156.75
2023-03-10T20:48:37.519Z,99159.19
2023-03-10T20:51:04.103Z,99160.63
2023-03-10T20:53:33.160Z,99161.31
2023-03-10T20:56:00.531Z,99166.22
2023-03-10T20:58:27.419Z,99167.84
2023-03-10T21:00:53.917Z,99191.16
2023-03-10T21:03:21.523Z,99202.56
2023-03-10T21:05:48.028Z,99204.16
2023-03-10T21:08:14.482Z,99193.59
2023-03-10T21:10:41.647Z,99183.88
2023-03-10T21:13:08.060Z,99184.19
2023-03-10T21:15:34.524Z,99186.69
2023-03-10T21:18:00.911Z,99188.44
2023-03-10T21:20:27.420Z,99184.88
2023-03-10T21:22:53.906Z,99178.31
2023-03-10T21:25:23.684Z,99172.34
2023-03-10T21:27:52.984Z,99179.81
2023-03-10T21:30:21.291Z,99175.66
2023-03-10T21:32:48.061Z,99182.44
2023-03-10T21:35:15.079Z,99190.59
2023-03-10T21:37:42.518Z,99185.28
2023-03-10T21:40:11.840Z,99181.19
2023-03-10T21:42:38.288Z,99171.59
2023-03-10T21:45:05.534Z,99176.56
2023-03-10T21:47:31.995Z,99172.28
2023-03-10T21:49:58.424Z,99179.00
2023-03-10T21:52:26.876Z,99175.69
2023-03-10T21:54:53.298Z,99154.97
2023-03-10T21:57:19.759Z,99172.22
2023-03-10T21:59:46.194Z,99154.28
2023-03-10T22:02:28.006Z,99162.78
2023-03-10T22:04:55.582Z,99177.31
2023-03-10T22:07:22.219Z,99163.25
2023-03-10T22:09:49.020Z,99170.00
2023-03-10T22:12:15.992Z,99169.84
2023-03-10T22:14:43.070Z,99168.66
2023-03-10T22:17:09.668Z,99158.78
2023-03-10T22:19:36.071Z,99152.22
2023-03-10T22:22:02.815Z,99156.13
2023-03-10T22:24:29.265Z,99158.09
2023-03-10T22:26:55.699Z,99133.91
2023-03-10T22:29:22.131Z,99138.91
2023-03-10T22:31:51.697Z,99125.28
2023-03-10T22:34:18.197Z,99110.91
2023-03-10T22:36:44.663Z,99103.16
2023-03-10T22:39:11.152Z,99099.78
2023-03-10T22:41:38.777Z,99103.94
2023-03-10T22:44:05.495Z,99111.69
2023-03-10T22:46:32.424Z,99124.50
2023-03-10T22:48:59.067Z,99147.72
2023-03-10T22:51:25.463Z,99133.84
2023-03-10T22:53:51.909Z,99142.06
2023-03-10T22:56:18.449Z,99134.63
2023-03-10T22:58:44.862Z,99144.72
2023-03-10T23:01:11.233Z,99162.25
2023-03-10T23:03:37.678Z,99166.38
2023-03-10T23:06:05.988Z,99166.06
2023-03-10T23:08:33.114Z,99155.03
2023-03-10T23:10:59.493Z,99158.06
2023-03-10T23:13:26.101Z,99159.56
2023-03-10T23:15:52.554Z,99155.28
2023-03-10T23:18:19.712Z,99164.97
2023-03-10T23:20:49.047Z,99166.28
2023-03-10T23:23:18.093Z,99159.06
2023-03-10T23:25:47.219Z,99155.50
2023-03-10T23:28:14.913Z,99158.88
2023-03-10T23:30:43.157Z,99159.91
2023-03-10T23:33:12.858Z,99161.69
2023-03-10T23:35:39.268Z,99167.34
2023-03-10T23:38:06.180Z,99169.06
2023-03-10T23:40:33.848Z,99156.19
2023-03-10T23:43:03.810Z,99157.66
2023-03-10T23:45:31.938Z,99169.38
2023-03-10T23:48:01.524Z,99178.34
2023-03-10T23:50:33.959Z,99171.75
2023-03-10T23:53:01.564Z,99166.09
2023-03-10T23:55:32.306Z,99158.47
2023-03-10T23:57:59.184Z,99158.19
